FPO weather

Grand Bahama International Airport
Freeport, Freeport, Bahamas

Public forecast

Using degrees Celsius for public forecast. Weather courtesy of forecast.io.

Current aviation weather report (METAR) for Grand Bahama International Airport

Retrieved 2020/06/06 20:00 UTC (13 minutes ago):

MYGF 062000Z 13010KT 9999 VCSH BKN014TCU BKN080 OVC200 30/27 A3003

Aviation forecast (TAF) for Grand Bahama International Airport

Forecast is more than 12 hours old.

Retrieved 2020/06/05 18:59 UTC (1 day ago):

TAF MYGF 051645Z 0518/0618 13012KT 9000 SHRA BKN013 OVC200 PROB30 TEMPO 0600/0603 12010KT 9999 VCSH SCT015 BKN220